sensor_id;sensor_type;location;lat;lon;timestamp;P1;durP1;ratioP1;P2;durP2;ratioP2
47147;SDS011;32900;47.498;8.738;2022-09-09T00:09:38;5.95;;;1.65;;
47147;SDS011;32900;47.498;8.738;2022-09-09T00:12:20;4.72;;;1.23;;
47147;SDS011;32900;47.498;8.738;2022-09-09T00:15:05;4.57;;;1.30;;
47147;SDS011;32900;47.498;8.738;2022-09-09T00:17:43;5.05;;;1.40;;
47147;SDS011;32900;47.498;8.738;2022-09-09T00:28:48;4.68;;;1.30;;
47147;SDS011;32900;47.498;8.738;2022-09-09T00:31:29;4.95;;;1.30;;
47147;SDS011;32900;47.498;8.738;2022-09-09T00:34:43;5.95;;;1.23;;
47147;SDS011;32900;47.498;8.738;2022-09-09T00:36:48;5.68;;;1.67;;
47147;SDS011;32900;47.498;8.738;2022-09-09T00:42:24;2.42;;;1.13;;
47147;SDS011;32900;47.498;8.738;2022-09-09T00:47:57;3.78;;;1.52;;
47147;SDS011;32900;47.498;8.738;2022-09-09T00:58:36;6.25;;;1.45;;
47147;SDS011;32900;47.498;8.738;2022-09-09T01:01:04;4.70;;;1.33;;
47147;SDS011;32900;47.498;8.738;2022-09-09T01:03:36;3.72;;;1.30;;
47147;SDS011;32900;47.498;8.738;2022-09-09T01:06:15;3.33;;;1.00;;
47147;SDS011;32900;47.498;8.738;2022-09-09T01:14:39;5.78;;;1.50;;
47147;SDS011;32900;47.498;8.738;2022-09-09T01:17:40;3.50;;;1.27;;
47147;SDS011;32900;47.498;8.738;2022-09-09T01:23:30;4.75;;;1.70;;
47147;SDS011;32900;47.498;8.738;2022-09-09T01:28:50;5.55;;;1.45;;
47147;SDS011;32900;47.498;8.738;2022-09-09T01:31:29;4.43;;;1.23;;
47147;SDS011;32900;47.498;8.738;2022-09-09T01:34:16;3.85;;;1.17;;
47147;SDS011;32900;47.498;8.738;2022-09-09T01:36:44;5.38;;;1.40;;
47147;SDS011;32900;47.498;8.738;2022-09-09T01:39:38;4.70;;;1.10;;
47147;SDS011;32900;47.498;8.738;2022-09-09T01:42:11;3.88;;;1.23;;
47147;SDS011;32900;47.498;8.738;2022-09-09T01:44:41;2.13;;;1.08;;
47147;SDS011;32900;47.498;8.738;2022-09-09T01:47:09;4.03;;;1.17;;
47147;SDS011;32900;47.498;8.738;2022-09-09T01:49:36;6.32;;;1.38;;
47147;SDS011;32900;47.498;8.738;2022-09-09T01:52:05;3.17;;;1.30;;
47147;SDS011;32900;47.498;8.738;2022-09-09T01:54:34;3.85;;;1.48;;
47147;SDS011;32900;47.498;8.738;2022-09-09T02:02:13;4.25;;;2.05;;
47147;SDS011;32900;47.498;8.738;2022-09-09T02:04:43;5.13;;;1.60;;
47147;SDS011;32900;47.498;8.738;2022-09-09T02:12:32;2.72;;;1.38;;
47147;SDS011;32900;47.498;8.738;2022-09-09T02:15:01;4.90;;;1.38;;
47147;SDS011;32900;47.498;8.738;2022-09-09T02:17:34;2.28;;;1.35;;
47147;SDS011;32900;47.498;8.738;2022-09-09T02:20:08;5.43;;;1.50;;
47147;SDS011;32900;47.498;8.738;2022-09-09T02:59:04;4.15;;;1.15;;
47147;SDS011;32900;47.498;8.738;2022-09-09T03:01:31;5.38;;;1.30;;
47147;SDS011;32900;47.498;8.738;2022-09-09T03:03:58;3.42;;;1.27;;
47147;SDS011;32900;47.498;8.738;2022-09-09T03:06:24;4.68;;;1.45;;
47147;SDS011;32900;47.498;8.738;2022-09-09T03:08:51;3.05;;;1.15;;
47147;SDS011;32900;47.498;8.738;2022-09-09T03:11:18;6.20;;;1.67;;
47147;SDS011;32900;47.498;8.738;2022-09-09T03:13:46;3.00;;;1.10;;
47147;SDS011;32900;47.498;8.738;2022-09-09T03:16:13;6.10;;;1.55;;
47147;SDS011;32900;47.498;8.738;2022-09-09T03:18:41;4.88;;;1.30;;
47147;SDS011;32900;47.498;8.738;2022-09-09T03:21:08;3.38;;;1.23;;
47147;SDS011;32900;47.498;8.738;2022-09-09T03:23:35;5.55;;;1.40;;
47147;SDS011;32900;47.498;8.738;2022-09-09T03:26:02;5.88;;;1.48;;
47147;SDS011;32900;47.498;8.738;2022-09-09T03:28:28;3.35;;;1.10;;
47147;SDS011;32900;47.498;8.738;2022-09-09T03:30:58;3.65;;;1.30;;
47147;SDS011;32900;47.498;8.738;2022-09-09T03:33:26;4.97;;;1.25;;
47147;SDS011;32900;47.498;8.738;2022-09-09T03:35:53;4.78;;;1.45;;
47147;SDS011;32900;47.498;8.738;2022-09-09T03:38:25;4.57;;;1.13;;
47147;SDS011;32900;47.498;8.738;2022-09-09T03:40:52;5.35;;;1.70;;
47147;SDS011;32900;47.498;8.738;2022-09-09T03:43:21;4.55;;;1.48;;
47147;SDS011;32900;47.498;8.738;2022-09-09T03:45:49;5.47;;;1.40;;
47147;SDS011;32900;47.498;8.738;2022-09-09T03:48:16;5.45;;;1.67;;
47147;SDS011;32900;47.498;8.738;2022-09-09T03:50:47;3.67;;;1.38;;
47147;SDS011;32900;47.498;8.738;2022-09-09T03:53:15;3.70;;;1.20;;
47147;SDS011;32900;47.498;8.738;2022-09-09T03:55:45;5.78;;;1.33;;
47147;SDS011;32900;47.498;8.738;2022-09-09T03:58:13;3.58;;;1.48;;
47147;SDS011;32900;47.498;8.738;2022-09-09T04:00:41;4.82;;;1.40;;
47147;SDS011;32900;47.498;8.738;2022-09-09T04:03:09;4.40;;;1.27;;
47147;SDS011;32900;47.498;8.738;2022-09-09T04:05:35;3.20;;;1.40;;
47147;SDS011;32900;47.498;8.738;2022-09-09T04:08:06;2.78;;;1.15;;
47147;SDS011;32900;47.498;8.738;2022-09-09T04:10:33;5.22;;;1.40;;
47147;SDS011;32900;47.498;8.738;2022-09-09T04:13:01;6.38;;;1.75;;
47147;SDS011;32900;47.498;8.738;2022-09-09T04:15:28;6.88;;;1.60;;
47147;SDS011;32900;47.498;8.738;2022-09-09T04:17:55;6.65;;;1.20;;
47147;SDS011;32900;47.498;8.738;2022-09-09T04:20:22;4.95;;;1.20;;
47147;SDS011;32900;47.498;8.738;2022-09-09T04:22:49;3.65;;;1.65;;
47147;SDS011;32900;47.498;8.738;2022-09-09T04:25:16;3.95;;;1.20;;
47147;SDS011;32900;47.498;8.738;2022-09-09T04:27:43;4.25;;;1.35;;
47147;SDS011;32900;47.498;8.738;2022-09-09T04:30:10;5.07;;;1.58;;
47147;SDS011;32900;47.498;8.738;2022-09-09T04:32:38;2.95;;;1.42;;
47147;SDS011;32900;47.498;8.738;2022-09-09T04:35:04;5.05;;;1.75;;
47147;SDS011;32900;47.498;8.738;2022-09-09T04:37:31;5.80;;;1.40;;
47147;SDS011;32900;47.498;8.738;2022-09-09T04:39:58;4.78;;;1.73;;
47147;SDS011;32900;47.498;8.738;2022-09-09T04:42:28;5.10;;;1.60;;
47147;SDS011;32900;47.498;8.738;2022-09-09T04:44:54;3.58;;;1.55;;
47147;SDS011;32900;47.498;8.738;2022-09-09T04:47:21;4.18;;;1.23;;
47147;SDS011;32900;47.498;8.738;2022-09-09T04:49:48;5.05;;;1.52;;
47147;SDS011;32900;47.498;8.738;2022-09-09T04:52:15;5.57;;;1.48;;
47147;SDS011;32900;47.498;8.738;2022-09-09T04:54:43;5.47;;;1.48;;
47147;SDS011;32900;47.498;8.738;2022-09-09T04:57:11;6.82;;;1.55;;
47147;SDS011;32900;47.498;8.738;2022-09-09T04:59:43;4.00;;;1.30;;
47147;SDS011;32900;47.498;8.738;2022-09-09T05:02:11;3.63;;;1.40;;
47147;SDS011;32900;47.498;8.738;2022-09-09T05:04:38;3.95;;;1.52;;
47147;SDS011;32900;47.498;8.738;2022-09-09T05:07:06;5.40;;;1.20;;
47147;SDS011;32900;47.498;8.738;2022-09-09T05:09:34;5.00;;;1.30;;
47147;SDS011;32900;47.498;8.738;2022-09-09T05:12:01;3.53;;;1.20;;
47147;SDS011;32900;47.498;8.738;2022-09-09T05:14:29;4.20;;;1.45;;
47147;SDS011;32900;47.498;8.738;2022-09-09T05:16:57;3.55;;;1.30;;
47147;SDS011;32900;47.498;8.738;2022-09-09T05:19:24;3.47;;;1.55;;
47147;SDS011;32900;47.498;8.738;2022-09-09T05:21:50;4.57;;;1.33;;
47147;SDS011;32900;47.498;8.738;2022-09-09T05:24:17;2.33;;;1.10;;
47147;SDS011;32900;47.498;8.738;2022-09-09T05:26:44;2.97;;;1.30;;
47147;SDS011;32900;47.498;8.738;2022-09-09T05:29:11;2.42;;;1.00;;
47147;SDS011;32900;47.498;8.738;2022-09-09T05:31:38;3.30;;;1.20;;
47147;SDS011;32900;47.498;8.738;2022-09-09T05:34:05;4.05;;;1.42;;
47147;SDS011;32900;47.498;8.738;2022-09-09T05:36:33;3.08;;;1.00;;
47147;SDS011;32900;47.498;8.738;2022-09-09T05:38:59;4.55;;;1.33;;
47147;SDS011;32900;47.498;8.738;2022-09-09T05:41:27;6.15;;;1.40;;
47147;SDS011;32900;47.498;8.738;2022-09-09T05:43:55;1.92;;;0.80;;
47147;SDS011;32900;47.498;8.738;2022-09-09T05:46:23;2.05;;;0.98;;
47147;SDS011;32900;47.498;8.738;2022-09-09T05:48:51;2.85;;;1.10;;
47147;SDS011;32900;47.498;8.738;2022-09-09T05:51:20;3.90;;;1.40;;
47147;SDS011;32900;47.498;8.738;2022-09-09T05:53:50;2.53;;;1.30;;
47147;SDS011;32900;47.498;8.738;2022-09-09T05:56:22;4.95;;;1.20;;
47147;SDS011;32900;47.498;8.738;2022-09-09T05:58:54;3.17;;;1.10;;
47147;SDS011;32900;47.498;8.738;2022-09-09T06:01:23;3.70;;;1.50;;
47147;SDS011;32900;47.498;8.738;2022-09-09T06:03:55;3.00;;;1.45;;
47147;SDS011;32900;47.498;8.738;2022-09-09T06:06:23;4.10;;;1.00;;
47147;SDS011;32900;47.498;8.738;2022-09-09T06:08:54;4.38;;;1.30;;
47147;SDS011;32900;47.498;8.738;2022-09-09T06:11:24;3.63;;;1.92;;
47147;SDS011;32900;47.498;8.738;2022-09-09T06:13:52;4.85;;;2.05;;
47147;SDS011;32900;47.498;8.738;2022-09-09T06:16:21;6.00;;;1.40;;
47147;SDS011;32900;47.498;8.738;2022-09-09T06:18:50;4.90;;;1.40;;
47147;SDS011;32900;47.498;8.738;2022-09-09T06:21:19;4.22;;;1.40;;
47147;SDS011;32900;47.498;8.738;2022-09-09T06:23:53;2.60;;;1.38;;
47147;SDS011;32900;47.498;8.738;2022-09-09T06:26:26;2.55;;;1.08;;
47147;SDS011;32900;47.498;8.738;2022-09-09T06:28:56;2.25;;;1.15;;
47147;SDS011;32900;47.498;8.738;2022-09-09T06:31:25;4.78;;;1.30;;
47147;SDS011;32900;47.498;8.738;2022-09-09T06:33:56;3.50;;;1.30;;
47147;SDS011;32900;47.498;8.738;2022-09-09T06:36:31;4.65;;;1.20;;
47147;SDS011;32900;47.498;8.738;2022-09-09T06:39:00;3.17;;;1.00;;
47147;SDS011;32900;47.498;8.738;2022-09-09T06:41:27;3.58;;;1.20;;
47147;SDS011;32900;47.498;8.738;2022-09-09T06:43:56;3.20;;;1.02;;
47147;SDS011;32900;47.498;8.738;2022-09-09T06:46:23;3.65;;;1.10;;
47147;SDS011;32900;47.498;8.738;2022-09-09T06:48:55;3.60;;;1.00;;
47147;SDS011;32900;47.498;8.738;2022-09-09T06:51:23;4.90;;;1.00;;
47147;SDS011;32900;47.498;8.738;2022-09-09T06:53:55;4.28;;;1.20;;
47147;SDS011;32900;47.498;8.738;2022-09-09T06:59:02;3.58;;;1.00;;
47147;SDS011;32900;47.498;8.738;2022-09-09T07:01:32;3.00;;;1.20;;
47147;SDS011;32900;47.498;8.738;2022-09-09T07:04:02;2.97;;;1.20;;
47147;SDS011;32900;47.498;8.738;2022-09-09T07:06:35;2.70;;;1.00;;
47147;SDS011;32900;47.498;8.738;2022-09-09T07:09:07;6.28;;;1.30;;
47147;SDS011;32900;47.498;8.738;2022-09-09T07:11:44;3.75;;;1.10;;
47147;SDS011;32900;47.498;8.738;2022-09-09T07:14:12;4.82;;;1.05;;
47147;SDS011;32900;47.498;8.738;2022-09-09T07:16:40;4.07;;;1.13;;
47147;SDS011;32900;47.498;8.738;2022-09-09T07:19:08;4.82;;;1.10;;
47147;SDS011;32900;47.498;8.738;2022-09-09T07:21:36;3.17;;;0.98;;
47147;SDS011;32900;47.498;8.738;2022-09-09T07:24:03;2.75;;;1.10;;
47147;SDS011;32900;47.498;8.738;2022-09-09T07:26:33;2.83;;;0.85;;
47147;SDS011;32900;47.498;8.738;2022-09-09T07:29:01;2.72;;;1.00;;
47147;SDS011;32900;47.498;8.738;2022-09-09T07:31:29;2.50;;;1.00;;
47147;SDS011;32900;47.498;8.738;2022-09-09T07:33:58;1.75;;;0.82;;
47147;SDS011;32900;47.498;8.738;2022-09-09T07:36:32;2.28;;;0.90;;
47147;SDS011;32900;47.498;8.738;2022-09-09T07:39:05;2.58;;;1.00;;
47147;SDS011;32900;47.498;8.738;2022-09-09T07:41:37;3.10;;;0.93;;
47147;SDS011;32900;47.498;8.738;2022-09-09T07:44:10;2.83;;;0.95;;
47147;SDS011;32900;47.498;8.738;2022-09-09T07:46:42;3.70;;;1.08;;
47147;SDS011;32900;47.498;8.738;2022-09-09T07:49:11;2.75;;;1.00;;
47147;SDS011;32900;47.498;8.738;2022-09-09T07:51:39;2.90;;;0.95;;
47147;SDS011;32900;47.498;8.738;2022-09-09T07:54:09;6.35;;;1.25;;
47147;SDS011;32900;47.498;8.738;2022-09-09T07:56:37;2.40;;;0.88;;
47147;SDS011;32900;47.498;8.738;2022-09-09T07:59:05;2.10;;;1.10;;
47147;SDS011;32900;47.498;8.738;2022-09-09T08:01:34;5.00;;;0.95;;
47147;SDS011;32900;47.498;8.738;2022-09-09T08:04:09;3.78;;;1.10;;
47147;SDS011;32900;47.498;8.738;2022-09-09T08:06:44;4.45;;;0.98;;
47147;SDS011;32900;47.498;8.738;2022-09-09T08:09:13;2.15;;;1.08;;
47147;SDS011;32900;47.498;8.738;2022-09-09T08:11:41;3.72;;;1.15;;
47147;SDS011;32900;47.498;8.738;2022-09-09T08:14:08;3.25;;;1.08;;
47147;SDS011;32900;47.498;8.738;2022-09-09T08:16:37;3.70;;;1.15;;
47147;SDS011;32900;47.498;8.738;2022-09-09T08:19:06;4.45;;;1.30;;
47147;SDS011;32900;47.498;8.738;2022-09-09T08:21:34;3.42;;;1.00;;
47147;SDS011;32900;47.498;8.738;2022-09-09T08:24:04;3.33;;;0.98;;
47147;SDS011;32900;47.498;8.738;2022-09-09T08:26:33;1.88;;;1.00;;
47147;SDS011;32900;47.498;8.738;2022-09-09T08:29:02;1.90;;;1.10;;
47147;SDS011;32900;47.498;8.738;2022-09-09T08:31:32;4.95;;;1.10;;
47147;SDS011;32900;47.498;8.738;2022-09-09T08:34:01;4.43;;;1.63;;
47147;SDS011;32900;47.498;8.738;2022-09-09T08:36:30;4.28;;;1.30;;
47147;SDS011;32900;47.498;8.738;2022-09-09T08:39:02;5.03;;;1.30;;
47147;SDS011;32900;47.498;8.738;2022-09-09T08:50:05;6.53;;;1.48;;
47147;SDS011;32900;47.498;8.738;2022-09-09T08:52:54;8.82;;;1.23;;
47147;SDS011;32900;47.498;8.738;2022-09-09T08:56:18;4.28;;;1.15;;
47147;SDS011;32900;47.498;8.738;2022-09-09T08:58:26;3.80;;;1.13;;
47147;SDS011;32900;47.498;8.738;2022-09-09T09:11:46;4.22;;;1.40;;
47147;SDS011;32900;47.498;8.738;2022-09-09T09:14:25;3.15;;;0.90;;
47147;SDS011;32900;47.498;8.738;2022-09-09T09:17:00;5.00;;;1.30;;
47147;SDS011;32900;47.498;8.738;2022-09-09T09:19:33;4.47;;;1.30;;
47147;SDS011;32900;47.498;8.738;2022-09-09T09:22:13;3.95;;;1.05;;
47147;SDS011;32900;47.498;8.738;2022-09-09T09:25:00;4.80;;;1.10;;
47147;SDS011;32900;47.498;8.738;2022-09-09T09:27:38;3.85;;;0.98;;
47147;SDS011;32900;47.498;8.738;2022-09-09T09:33:17;5.50;;;1.23;;
47147;SDS011;32900;47.498;8.738;2022-09-09T09:35:50;5.25;;;1.15;;
47147;SDS011;32900;47.498;8.738;2022-09-09T09:38:24;3.97;;;0.88;;
47147;SDS011;32900;47.498;8.738;2022-09-09T09:41:12;4.78;;;1.10;;
47147;SDS011;32900;47.498;8.738;2022-09-09T09:43:40;5.30;;;1.15;;
47147;SDS011;32900;47.498;8.738;2022-09-09T09:46:22;5.93;;;1.23;;
47147;SDS011;32900;47.498;8.738;2022-09-09T09:49:04;5.90;;;1.00;;
47147;SDS011;32900;47.498;8.738;2022-09-09T09:51:32;5.70;;;1.13;;
47147;SDS011;32900;47.498;8.738;2022-09-09T09:56:55;6.60;;;1.20;;
47147;SDS011;32900;47.498;8.738;2022-09-09T10:04:39;4.22;;;1.10;;
47147;SDS011;32900;47.498;8.738;2022-09-09T10:07:15;3.17;;;0.80;;
47147;SDS011;32900;47.498;8.738;2022-09-09T10:09:56;3.55;;;1.10;;
47147;SDS011;32900;47.498;8.738;2022-09-09T10:26:06;5.30;;;1.13;;
47147;SDS011;32900;47.498;8.738;2022-09-09T10:34:32;4.07;;;1.08;;
47147;SDS011;32900;47.498;8.738;2022-09-09T10:37:02;5.03;;;1.30;;
47147;SDS011;32900;47.498;8.738;2022-09-09T10:39:48;4.43;;;1.10;;
47147;SDS011;32900;47.498;8.738;2022-09-09T10:42:25;6.82;;;1.33;;
47147;SDS011;32900;47.498;8.738;2022-09-09T10:56:10;7.15;;;1.30;;
47147;SDS011;32900;47.498;8.738;2022-09-09T10:58:42;4.22;;;1.13;;
47147;SDS011;32900;47.498;8.738;2022-09-09T11:04:19;4.90;;;1.00;;
47147;SDS011;32900;47.498;8.738;2022-09-09T11:06:58;3.83;;;0.95;;
47147;SDS011;32900;47.498;8.738;2022-09-09T11:09:38;4.22;;;1.17;;
47147;SDS011;32900;47.498;8.738;2022-09-09T11:12:11;3.42;;;0.82;;
47147;SDS011;32900;47.498;8.738;2022-09-09T11:14:49;5.72;;;1.55;;
47147;SDS011;32900;47.498;8.738;2022-09-09T11:17:22;5.22;;;1.10;;
47147;SDS011;32900;47.498;8.738;2022-09-09T11:20:01;2.78;;;0.80;;
47147;SDS011;32900;47.498;8.738;2022-09-09T11:22:32;3.58;;;0.98;;
47147;SDS011;32900;47.498;8.738;2022-09-09T11:25:21;4.32;;;0.70;;
47147;SDS011;32900;47.498;8.738;2022-09-09T11:33:57;3.55;;;0.95;;
47147;SDS011;32900;47.498;8.738;2022-09-09T11:44:39;3.20;;;0.90;;
47147;SDS011;32900;47.498;8.738;2022-09-09T11:47:20;4.35;;;1.08;;
47147;SDS011;32900;47.498;8.738;2022-09-09T11:52:45;3.35;;;1.10;;
47147;SDS011;32900;47.498;8.738;2022-09-09T12:00:41;4.43;;;1.33;;
47147;SDS011;32900;47.498;8.738;2022-09-09T12:06:51;5.65;;;1.08;;
47147;SDS011;32900;47.498;8.738;2022-09-09T12:09:50;4.47;;;1.10;;
47147;SDS011;32900;47.498;8.738;2022-09-09T12:12:28;7.70;;;1.27;;
47147;SDS011;32900;47.498;8.738;2022-09-09T12:15:00;7.03;;;0.98;;
47147;SDS011;32900;47.498;8.738;2022-09-09T12:17:30;7.13;;;1.27;;
47147;SDS011;32900;47.498;8.738;2022-09-09T12:34:46;5.40;;;1.20;;
47147;SDS011;32900;47.498;8.738;2022-09-09T12:37:28;3.50;;;1.05;;
47147;SDS011;32900;47.498;8.738;2022-09-09T12:40:16;3.78;;;1.10;;
47147;SDS011;32900;47.498;8.738;2022-09-09T12:42:49;3.20;;;1.10;;
47147;SDS011;32900;47.498;8.738;2022-09-09T12:45:23;6.13;;;1.02;;
47147;SDS011;32900;47.498;8.738;2022-09-09T12:47:56;4.68;;;1.00;;
47147;SDS011;32900;47.498;8.738;2022-09-09T12:50:32;3.75;;;1.13;;
47147;SDS011;32900;47.498;8.738;2022-09-09T12:53:22;7.97;;;1.15;;
47147;SDS011;32900;47.498;8.738;2022-09-09T12:55:56;5.20;;;0.90;;
47147;SDS011;32900;47.498;8.738;2022-09-09T12:58:36;5.72;;;1.02;;
47147;SDS011;32900;47.498;8.738;2022-09-09T13:01:05;5.93;;;1.00;;
47147;SDS011;32900;47.498;8.738;2022-09-09T13:03:32;4.35;;;1.05;;
47147;SDS011;32900;47.498;8.738;2022-09-09T13:06:12;4.47;;;1.00;;
47147;SDS011;32900;47.498;8.738;2022-09-09T13:08:44;3.10;;;1.10;;
47147;SDS011;32900;47.498;8.738;2022-09-09T13:11:12;2.97;;;1.00;;
47147;SDS011;32900;47.498;8.738;2022-09-09T13:13:43;5.07;;;1.30;;
47147;SDS011;32900;47.498;8.738;2022-09-09T13:19:08;3.60;;;0.85;;
47147;SDS011;32900;47.498;8.738;2022-09-09T13:21:39;2.88;;;0.90;;
47147;SDS011;32900;47.498;8.738;2022-09-09T13:24:07;3.92;;;0.93;;
47147;SDS011;32900;47.498;8.738;2022-09-09T13:26:56;5.10;;;0.95;;
47147;SDS011;32900;47.498;8.738;2022-09-09T13:29:23;3.67;;;0.85;;
47147;SDS011;32900;47.498;8.738;2022-09-09T13:31:53;3.42;;;0.85;;
47147;SDS011;32900;47.498;8.738;2022-09-09T13:34:26;2.17;;;0.68;;
47147;SDS011;32900;47.498;8.738;2022-09-09T13:36:57;3.22;;;0.88;;
47147;SDS011;32900;47.498;8.738;2022-09-09T13:39:29;2.30;;;0.88;;
47147;SDS011;32900;47.498;8.738;2022-09-09T13:41:56;3.30;;;1.08;;
47147;SDS011;32900;47.498;8.738;2022-09-09T13:44:25;4.95;;;1.30;;
47147;SDS011;32900;47.498;8.738;2022-09-09T13:47:02;1.85;;;0.80;;
47147;SDS011;32900;47.498;8.738;2022-09-09T13:49:35;3.65;;;0.80;;
47147;SDS011;32900;47.498;8.738;2022-09-09T13:52:04;3.63;;;0.98;;
47147;SDS011;32900;47.498;8.738;2022-09-09T13:54:32;5.10;;;1.13;;
47147;SDS011;32900;47.498;8.738;2022-09-09T13:56:59;4.32;;;0.88;;
47147;SDS011;32900;47.498;8.738;2022-09-09T13:59:27;4.22;;;0.93;;
47147;SDS011;32900;47.498;8.738;2022-09-09T14:02:14;3.13;;;0.75;;
47147;SDS011;32900;47.498;8.738;2022-09-09T14:04:43;2.47;;;0.80;;
47147;SDS011;32900;47.498;8.738;2022-09-09T14:07:16;2.35;;;0.77;;
47147;SDS011;32900;47.498;8.738;2022-09-09T14:09:44;5.07;;;0.73;;
47147;SDS011;32900;47.498;8.738;2022-09-09T14:12:16;4.53;;;1.13;;
47147;SDS011;32900;47.498;8.738;2022-09-09T14:14:42;4.43;;;1.25;;
47147;SDS011;32900;47.498;8.738;2022-09-09T14:17:10;2.90;;;0.80;;
47147;SDS011;32900;47.498;8.738;2022-09-09T14:19:36;4.03;;;0.63;;
47147;SDS011;32900;47.498;8.738;2022-09-09T14:22:03;3.40;;;0.82;;
47147;SDS011;32900;47.498;8.738;2022-09-09T14:24:30;3.20;;;0.80;;
47147;SDS011;32900;47.498;8.738;2022-09-09T14:26:56;4.30;;;0.73;;
47147;SDS011;32900;47.498;8.738;2022-09-09T14:29:23;3.20;;;0.70;;
47147;SDS011;32900;47.498;8.738;2022-09-09T14:31:52;2.65;;;1.10;;
47147;SDS011;32900;47.498;8.738;2022-09-09T14:34:19;1.88;;;0.60;;
47147;SDS011;32900;47.498;8.738;2022-09-09T14:36:46;3.13;;;0.60;;
47147;SDS011;32900;47.498;8.738;2022-09-09T14:39:13;4.38;;;0.95;;
47147;SDS011;32900;47.498;8.738;2022-09-09T14:41:40;2.00;;;0.70;;
47147;SDS011;32900;47.498;8.738;2022-09-09T14:44:06;2.92;;;0.85;;
47147;SDS011;32900;47.498;8.738;2022-09-09T14:46:34;5.35;;;0.90;;
47147;SDS011;32900;47.498;8.738;2022-09-09T14:49:01;5.53;;;1.15;;
47147;SDS011;32900;47.498;8.738;2022-09-09T14:51:28;6.80;;;0.90;;
47147;SDS011;32900;47.498;8.738;2022-09-09T14:53:55;7.43;;;1.00;;
47147;SDS011;32900;47.498;8.738;2022-09-09T14:56:25;6.13;;;1.40;;
47147;SDS011;32900;47.498;8.738;2022-09-09T14:58:54;4.07;;;0.88;;
47147;SDS011;32900;47.498;8.738;2022-09-09T15:01:22;5.20;;;1.02;;
47147;SDS011;32900;47.498;8.738;2022-09-09T15:03:50;7.40;;;1.10;;
47147;SDS011;32900;47.498;8.738;2022-09-09T15:06:29;5.78;;;1.08;;
47147;SDS011;32900;47.498;8.738;2022-09-09T15:08:57;6.97;;;1.05;;
47147;SDS011;32900;47.498;8.738;2022-09-09T15:11:28;3.92;;;0.80;;
47147;SDS011;32900;47.498;8.738;2022-09-09T15:13:56;2.20;;;0.70;;
47147;SDS011;32900;47.498;8.738;2022-09-09T15:16:25;3.20;;;0.93;;
47147;SDS011;32900;47.498;8.738;2022-09-09T15:18:55;2.70;;;0.75;;
47147;SDS011;32900;47.498;8.738;2022-09-09T15:21:25;4.75;;;0.90;;
47147;SDS011;32900;47.498;8.738;2022-09-09T15:23:54;4.05;;;0.80;;
47147;SDS011;32900;47.498;8.738;2022-09-09T15:26:21;2.45;;;0.77;;
47147;SDS011;32900;47.498;8.738;2022-09-09T15:28:48;3.40;;;0.63;;
47147;SDS011;32900;47.498;8.738;2022-09-09T15:31:17;5.13;;;1.08;;
47147;SDS011;32900;47.498;8.738;2022-09-09T15:33:55;5.28;;;0.82;;
47147;SDS011;32900;47.498;8.738;2022-09-09T15:36:30;2.45;;;0.80;;
47147;SDS011;32900;47.498;8.738;2022-09-09T15:39:02;2.40;;;0.88;;
47147;SDS011;32900;47.498;8.738;2022-09-09T15:41:30;4.38;;;0.80;;
47147;SDS011;32900;47.498;8.738;2022-09-09T15:43:57;2.38;;;0.90;;
47147;SDS011;32900;47.498;8.738;2022-09-09T15:51:39;2.97;;;0.60;;
47147;SDS011;32900;47.498;8.738;2022-09-09T15:54:11;2.95;;;0.70;;
47147;SDS011;32900;47.498;8.738;2022-09-09T15:56:39;3.50;;;0.93;;
47147;SDS011;32900;47.498;8.738;2022-09-09T15:59:07;4.85;;;0.90;;
47147;SDS011;32900;47.498;8.738;2022-09-09T16:01:34;4.65;;;0.60;;
47147;SDS011;32900;47.498;8.738;2022-09-09T16:04:02;3.75;;;0.70;;
47147;SDS011;32900;47.498;8.738;2022-09-09T16:06:30;3.75;;;0.85;;
47147;SDS011;32900;47.498;8.738;2022-09-09T16:08:57;5.00;;;0.68;;
47147;SDS011;32900;47.498;8.738;2022-09-09T16:11:27;3.33;;;0.77;;
47147;SDS011;32900;47.498;8.738;2022-09-09T16:13:58;6.93;;;1.53;;
47147;SDS011;32900;47.498;8.738;2022-09-09T16:16:26;2.55;;;0.55;;
47147;SDS011;32900;47.498;8.738;2022-09-09T16:18:59;5.20;;;0.88;;
47147;SDS011;32900;47.498;8.738;2022-09-09T16:21:30;3.30;;;1.08;;
47147;SDS011;32900;47.498;8.738;2022-09-09T16:23:59;2.53;;;0.50;;
47147;SDS011;32900;47.498;8.738;2022-09-09T16:26:32;4.10;;;0.70;;
47147;SDS011;32900;47.498;8.738;2022-09-09T16:29:00;3.78;;;1.00;;
47147;SDS011;32900;47.498;8.738;2022-09-09T16:31:29;3.35;;;0.90;;
47147;SDS011;32900;47.498;8.738;2022-09-09T16:33:58;3.60;;;0.80;;
47147;SDS011;32900;47.498;8.738;2022-09-09T16:36:26;2.53;;;0.68;;
47147;SDS011;32900;47.498;8.738;2022-09-09T16:38:57;2.45;;;0.90;;
47147;SDS011;32900;47.498;8.738;2022-09-09T16:41:25;3.20;;;0.88;;
47147;SDS011;32900;47.498;8.738;2022-09-09T16:43:54;3.97;;;0.85;;
47147;SDS011;32900;47.498;8.738;2022-09-09T16:46:28;6.53;;;0.80;;
47147;SDS011;32900;47.498;8.738;2022-09-09T16:48:57;6.00;;;1.00;;
47147;SDS011;32900;47.498;8.738;2022-09-09T16:51:25;4.95;;;1.23;;
47147;SDS011;32900;47.498;8.738;2022-09-09T16:53:57;3.60;;;0.88;;
47147;SDS011;32900;47.498;8.738;2022-09-09T16:56:26;6.47;;;0.90;;
47147;SDS011;32900;47.498;8.738;2022-09-09T16:58:56;4.68;;;1.13;;
47147;SDS011;32900;47.498;8.738;2022-09-09T17:01:25;3.95;;;1.02;;
47147;SDS011;32900;47.498;8.738;2022-09-09T17:03:57;3.92;;;0.95;;
47147;SDS011;32900;47.498;8.738;2022-09-09T17:06:27;3.60;;;0.90;;
47147;SDS011;32900;47.498;8.738;2022-09-09T17:08:57;1.65;;;0.75;;
47147;SDS011;32900;47.498;8.738;2022-09-09T17:11:25;5.15;;;1.00;;
47147;SDS011;32900;47.498;8.738;2022-09-09T17:13:52;4.75;;;0.93;;
47147;SDS011;32900;47.498;8.738;2022-09-09T17:16:21;4.47;;;0.98;;
47147;SDS011;32900;47.498;8.738;2022-09-09T17:18:51;4.93;;;1.20;;
47147;SDS011;32900;47.498;8.738;2022-09-09T17:21:21;4.40;;;1.02;;
47147;SDS011;32900;47.498;8.738;2022-09-09T17:23:49;4.43;;;0.90;;
47147;SDS011;32900;47.498;8.738;2022-09-09T17:26:17;6.75;;;1.10;;
47147;SDS011;32900;47.498;8.738;2022-09-09T17:28:45;4.75;;;0.73;;
47147;SDS011;32900;47.498;8.738;2022-09-09T17:31:12;2.85;;;0.88;;
47147;SDS011;32900;47.498;8.738;2022-09-09T17:33:42;4.30;;;0.98;;
47147;SDS011;32900;47.498;8.738;2022-09-09T17:36:13;5.30;;;1.05;;
47147;SDS011;32900;47.498;8.738;2022-09-09T17:38:40;4.90;;;0.80;;
47147;SDS011;32900;47.498;8.738;2022-09-09T17:41:09;5.25;;;1.10;;
47147;SDS011;32900;47.498;8.738;2022-09-09T17:43:42;4.88;;;0.90;;
47147;SDS011;32900;47.498;8.738;2022-09-09T17:46:13;3.72;;;1.13;;
47147;SDS011;32900;47.498;8.738;2022-09-09T17:48:46;3.67;;;1.00;;
47147;SDS011;32900;47.498;8.738;2022-09-09T17:51:14;3.17;;;0.90;;
47147;SDS011;32900;47.498;8.738;2022-09-09T17:53:44;5.40;;;0.80;;
47147;SDS011;32900;47.498;8.738;2022-09-09T17:56:14;3.03;;;0.80;;
47147;SDS011;32900;47.498;8.738;2022-09-09T17:58:42;5.40;;;0.95;;
47147;SDS011;32900;47.498;8.738;2022-09-09T18:01:12;3.22;;;0.77;;
47147;SDS011;32900;47.498;8.738;2022-09-09T18:03:41;3.03;;;0.98;;
47147;SDS011;32900;47.498;8.738;2022-09-09T18:06:09;3.97;;;1.10;;
47147;SDS011;32900;47.498;8.738;2022-09-09T18:08:38;3.17;;;0.90;;
47147;SDS011;32900;47.498;8.738;2022-09-09T18:11:07;4.43;;;0.80;;
47147;SDS011;32900;47.498;8.738;2022-09-09T18:13:34;2.20;;;0.60;;
47147;SDS011;32900;47.498;8.738;2022-09-09T18:16:05;1.83;;;0.65;;
47147;SDS011;32900;47.498;8.738;2022-09-09T18:18:33;1.65;;;0.68;;
47147;SDS011;32900;47.498;8.738;2022-09-09T18:21:01;2.65;;;0.80;;
47147;SDS011;32900;47.498;8.738;2022-09-09T18:23:28;2.83;;;0.55;;
47147;SDS011;32900;47.498;8.738;2022-09-09T18:25:56;2.17;;;0.70;;
47147;SDS011;32900;47.498;8.738;2022-09-09T18:28:27;2.85;;;0.70;;
47147;SDS011;32900;47.498;8.738;2022-09-09T18:30:54;3.28;;;0.50;;
47147;SDS011;32900;47.498;8.738;2022-09-09T18:33:21;3.05;;;0.77;;
47147;SDS011;32900;47.498;8.738;2022-09-09T18:35:48;3.17;;;0.52;;